sensor_id;sensor_type;location;lat;lon;timestamp;pressure;altitude;pressure_sealevel;temperature;humidity
42727;BME280;28372;56.832;60.658;2023-03-21T00:01:33;97915.69;;;4.51;41.76
42727;BME280;28372;56.832;60.658;2023-03-21T00:04:01;97914.09;;;4.50;44.21
42727;BME280;28372;56.832;60.658;2023-03-21T00:06:28;97906.88;;;4.51;41.25
42727;BME280;28372;56.832;60.658;2023-03-21T00:08:56;97910.78;;;4.53;37.03
42727;BME280;28372;56.832;60.658;2023-03-21T00:11:24;97913.47;;;4.53;40.82
42727;BME280;28372;56.832;60.658;2023-03-21T00:13:51;97917.69;;;4.54;36.77
42727;BME280;28372;56.832;60.658;2023-03-21T00:16:19;97915.03;;;4.54;37.02
42727;BME280;28372;56.832;60.658;2023-03-21T00:18:53;97912.47;;;4.58;39.91
42727;BME280;28372;56.832;60.658;2023-03-21T00:21:20;97907.91;;;4.58;38.91
42727;BME280;28372;56.832;60.658;2023-03-21T00:24:08;97893.72;;;4.58;41.70
42727;BME280;28372;56.832;60.658;2023-03-21T00:26:35;97904.13;;;4.59;49.86
42727;BME280;28372;56.832;60.658;2023-03-21T00:29:04;97885.69;;;4.58;42.15
42727;BME280;28372;56.832;60.658;2023-03-21T00:31:31;97886.47;;;4.58;38.72
42727;BME280;28372;56.832;60.658;2023-03-21T00:33:59;97879.22;;;4.59;39.58
42727;BME280;28372;56.832;60.658;2023-03-21T00:36:29;97880.47;;;4.61;43.22
42727;BME280;28372;56.832;60.658;2023-03-21T00:38:57;97885.84;;;4.61;50.85
42727;BME280;28372;56.832;60.658;2023-03-21T00:41:26;97887.38;;;4.62;49.74
42727;BME280;28372;56.832;60.658;2023-03-21T00:44:08;97885.50;;;4.63;43.02
42727;BME280;28372;56.832;60.658;2023-03-21T00:46:37;97885.94;;;4.65;43.69
42727;BME280;28372;56.832;60.658;2023-03-21T00:49:25;97877.56;;;4.67;43.03
42727;BME280;28372;56.832;60.658;2023-03-21T00:51:53;97876.47;;;4.68;48.92
42727;BME280;28372;56.832;60.658;2023-03-21T00:54:25;97876.47;;;4.68;41.56
42727;BME280;28372;56.832;60.658;2023-03-21T00:56:52;97880.72;;;4.69;41.89
42727;BME280;28372;56.832;60.658;2023-03-21T00:59:20;97881.50;;;4.69;46.97
42727;BME280;28372;56.832;60.658;2023-03-21T01:01:47;97883.06;;;4.70;42.16
42727;BME280;28372;56.832;60.658;2023-03-21T01:04:14;97873.91;;;4.71;41.47
42727;BME280;28372;56.832;60.658;2023-03-21T01:06:43;97873.25;;;4.74;36.98
42727;BME280;28372;56.832;60.658;2023-03-21T01:09:13;97875.94;;;4.74;37.30
42727;BME280;28372;56.832;60.658;2023-03-21T01:11:41;97860.97;;;4.73;38.53
42727;BME280;28372;56.832;60.658;2023-03-21T01:14:10;97862.06;;;4.72;43.56
42727;BME280;28372;56.832;60.658;2023-03-21T01:16:50;97860.50;;;4.71;43.08
42727;BME280;28372;56.832;60.658;2023-03-21T01:19:18;97864.41;;;4.74;39.95
42727;BME280;28372;56.832;60.658;2023-03-21T01:22:05;97867.09;;;4.74;39.82
42727;BME280;28372;56.832;60.658;2023-03-21T01:24:32;97877.81;;;4.74;47.11
42727;BME280;28372;56.832;60.658;2023-03-21T01:27:03;97870.09;;;4.72;46.33
42727;BME280;28372;56.832;60.658;2023-03-21T01:29:30;97870.56;;;4.74;48.53
42727;BME280;28372;56.832;60.658;2023-03-21T01:31:58;97866.66;;;4.72;44.12
42727;BME280;28372;56.832;60.658;2023-03-21T01:34:25;97871.22;;;4.71;43.30
42727;BME280;28372;56.832;60.658;2023-03-21T01:36:53;97869.78;;;4.74;44.42
42727;BME280;28372;56.832;60.658;2023-03-21T01:39:21;97861.31;;;4.72;48.20
42727;BME280;28372;56.832;60.658;2023-03-21T01:41:49;97862.88;;;4.73;43.25
42727;BME280;28372;56.832;60.658;2023-03-21T01:44:20;97857.19;;;4.74;38.92
42727;BME280;28372;56.832;60.658;2023-03-21T01:46:49;97864.41;;;4.74;42.28
42727;BME280;28372;56.832;60.658;2023-03-21T01:49:46;97860.63;;;4.75;42.38
42727;BME280;28372;56.832;60.658;2023-03-21T01:52:21;97861.88;;;4.77;42.21
42727;BME280;28372;56.832;60.658;2023-03-21T01:55:05;97857.28;;;4.78;41.34
42727;BME280;28372;56.832;60.658;2023-03-21T01:57:45;97857.75;;;4.80;39.80
42727;BME280;28372;56.832;60.658;2023-03-21T02:00:34;97856.19;;;4.79;39.97
42727;BME280;28372;56.832;60.658;2023-03-21T02:03:17;97848.91;;;4.79;40.89
42727;BME280;28372;56.832;60.658;2023-03-21T02:06:12;97857.09;;;4.83;43.18
42727;BME280;28372;56.832;60.658;2023-03-21T02:08:46;97855.66;;;4.86;38.44
42727;BME280;28372;56.832;60.658;2023-03-21T02:11:15;97841.91;;;4.87;40.86
42727;BME280;28372;56.832;60.658;2023-03-21T02:13:46;97849.28;;;4.90;47.28
42727;BME280;28372;56.832;60.658;2023-03-21T02:16:40;97842.34;;;4.89;42.79
42727;BME280;28372;56.832;60.658;2023-03-21T02:39:00;97844.28;;;5.01;36.73
42727;BME280;28372;56.832;60.658;2023-03-21T02:41:44;97835.13;;;5.02;36.86
42727;BME280;28372;56.832;60.658;2023-03-21T02:46:56;97834.47;;;5.05;35.59
42727;BME280;28372;56.832;60.658;2023-03-21T02:49:38;97829.19;;;5.09;34.60
42727;BME280;28372;56.832;60.658;2023-03-21T02:52:13;97828.44;;;5.08;35.58
42727;BME280;28372;56.832;60.658;2023-03-21T02:55:02;97833.13;;;5.11;34.59
42727;BME280;28372;56.832;60.658;2023-03-21T02:57:41;97823.28;;;5.15;34.40
42727;BME280;28372;56.832;60.658;2023-03-21T03:00:12;97828.44;;;5.21;34.91
42727;BME280;28372;56.832;60.658;2023-03-21T03:02:45;97823.63;;;5.14;38.66
42727;BME280;28372;56.832;60.658;2023-03-21T03:05:35;97827.88;;;5.15;35.77
42727;BME280;28372;56.832;60.658;2023-03-21T03:10:46;97819.94;;;5.19;35.19
42727;BME280;28372;56.832;60.658;2023-03-21T03:18:28;97823.84;;;5.21;34.89
42727;BME280;28372;56.832;60.658;2023-03-21T03:21:02;97821.84;;;5.18;43.16
42727;BME280;28372;56.832;60.658;2023-03-21T03:26:34;97818.81;;;5.20;42.21
42727;BME280;28372;56.832;60.658;2023-03-21T03:29:05;97804.19;;;5.17;36.86
42727;BME280;28372;56.832;60.658;2023-03-21T03:31:35;97812.09;;;5.26;36.02
42727;BME280;28372;56.832;60.658;2023-03-21T03:34:08;97814.69;;;5.35;35.64
42727;BME280;28372;56.832;60.658;2023-03-21T03:36:41;97811.91;;;5.43;36.04
42727;BME280;28372;56.832;60.658;2023-03-21T03:39:13;97813.56;;;5.48;35.76
42727;BME280;28372;56.832;60.658;2023-03-21T03:41:58;97805.84;;;5.59;35.48
42727;BME280;28372;56.832;60.658;2023-03-21T03:44:51;97809.50;;;5.66;35.56
42727;BME280;28372;56.832;60.658;2023-03-21T03:47:37;97804.03;;;5.75;35.50
42727;BME280;28372;56.832;60.658;2023-03-21T03:50:27;97814.28;;;5.86;41.72
42727;BME280;28372;56.832;60.658;2023-03-21T03:53:16;97815.28;;;5.93;36.77
42727;BME280;28372;56.832;60.658;2023-03-21T03:55:52;97824.00;;;6.03;36.66
42727;BME280;28372;56.832;60.658;2023-03-21T03:58:22;97808.09;;;6.10;46.16
42727;BME280;28372;56.832;60.658;2023-03-21T04:01:02;97812.53;;;6.18;37.71
42727;BME280;28372;56.832;60.658;2023-03-21T04:03:30;97813.53;;;6.26;36.44
42727;BME280;28372;56.832;60.658;2023-03-21T04:06:14;97802.19;;;6.32;36.42
42727;BME280;28372;56.832;60.658;2023-03-21T04:08:42;97807.31;;;6.38;40.89
42727;BME280;28372;56.832;60.658;2023-03-21T04:11:12;97809.41;;;6.44;44.92
42727;BME280;28372;56.832;60.658;2023-03-21T04:13:45;97809.94;;;6.50;36.91
42727;BME280;28372;56.832;60.658;2023-03-21T04:16:18;97814.72;;;6.57;39.71
42727;BME280;28372;56.832;60.658;2023-03-21T04:18:46;97813.34;;;6.63;45.36
42727;BME280;28372;56.832;60.658;2023-03-21T04:21:16;97810.06;;;6.69;47.61
42727;BME280;28372;56.832;60.658;2023-03-21T04:23:44;97814.50;;;6.78;42.38
42727;BME280;28372;56.832;60.658;2023-03-21T04:26:11;97805.50;;;6.86;45.62
42727;BME280;28372;56.832;60.658;2023-03-21T04:28:50;97810.69;;;6.95;39.20
42727;BME280;28372;56.832;60.658;2023-03-21T04:31:43;97809.41;;;7.05;45.75
42727;BME280;28372;56.832;60.658;2023-03-21T04:34:11;97805.41;;;7.14;40.46
42727;BME280;28372;56.832;60.658;2023-03-21T04:36:44;97802.53;;;7.23;38.60
42727;BME280;28372;56.832;60.658;2023-03-21T04:39:13;97798.53;;;7.33;41.64
42727;BME280;28372;56.832;60.658;2023-03-21T04:41:45;97792.59;;;7.43;40.57
42727;BME280;28372;56.832;60.658;2023-03-21T04:44:13;97797.47;;;7.53;38.28
42727;BME280;28372;56.832;60.658;2023-03-21T04:46:42;97789.94;;;7.63;37.80
42727;BME280;28372;56.832;60.658;2023-03-21T04:49:10;97788.97;;;7.71;37.53
42727;BME280;28372;56.832;60.658;2023-03-21T04:51:38;97794.50;;;7.78;37.42
42727;BME280;28372;56.832;60.658;2023-03-21T04:54:09;97787.03;;;7.87;37.40
42727;BME280;28372;56.832;60.658;2023-03-21T04:56:40;97786.81;;;7.96;39.65
42727;BME280;28372;56.832;60.658;2023-03-21T04:59:09;97783.91;;;8.05;38.20
42727;BME280;28372;56.832;60.658;2023-03-21T05:01:37;97789.44;;;8.12;41.73
42727;BME280;28372;56.832;60.658;2023-03-21T05:04:08;97789.94;;;8.18;42.97
42727;BME280;28372;56.832;60.658;2023-03-21T05:06:36;97778.50;;;8.24;39.78
42727;BME280;28372;56.832;60.658;2023-03-21T05:09:04;97776.72;;;8.32;42.29
42727;BME280;28372;56.832;60.658;2023-03-21T05:11:35;97781.84;;;8.37;44.70
42727;BME280;28372;56.832;60.658;2023-03-21T05:14:04;97784.34;;;8.46;40.20
42727;BME280;28372;56.832;60.658;2023-03-21T05:16:32;97779.47;;;8.55;44.21
42727;BME280;28372;56.832;60.658;2023-03-21T05:19:01;97779.28;;;8.64;38.20
42727;BME280;28372;56.832;60.658;2023-03-21T05:21:35;97776.69;;;8.71;37.40
42727;BME280;28372;56.832;60.658;2023-03-21T05:24:16;97775.69;;;8.80;38.99
42727;BME280;28372;56.832;60.658;2023-03-21T05:26:44;97772.66;;;8.85;40.75
42727;BME280;28372;56.832;60.658;2023-03-21T05:29:23;97769.31;;;8.91;41.37
42727;BME280;28372;56.832;60.658;2023-03-21T05:32:02;97771.72;;;8.97;42.25
42727;BME280;28372;56.832;60.658;2023-03-21T05:34:29;97770.63;;;9.01;41.94
42727;BME280;28372;56.832;60.658;2023-03-21T05:36:59;97773.03;;;9.06;42.95
42727;BME280;28372;56.832;60.658;2023-03-21T05:39:37;97759.22;;;9.12;43.84
42727;BME280;28372;56.832;60.658;2023-03-21T05:42:13;97760.50;;;9.21;41.21
42727;BME280;28372;56.832;60.658;2023-03-21T05:44:41;97764.13;;;9.29;43.10
42727;BME280;28372;56.832;60.658;2023-03-21T05:47:10;97758.03;;;9.36;39.82
42727;BME280;28372;56.832;60.658;2023-03-21T05:49:42;97750.06;;;9.47;40.55
42727;BME280;28372;56.832;60.658;2023-03-21T05:52:10;97744.81;;;9.54;40.51
42727;BME280;28372;56.832;60.658;2023-03-21T05:54:37;97745.72;;;9.65;38.32
42727;BME280;28372;56.832;60.658;2023-03-21T05:57:05;97748.13;;;9.74;40.26
42727;BME280;28372;56.832;60.658;2023-03-21T06:00:11;97748.28;;;9.85;41.47
42727;BME280;28372;56.832;60.658;2023-03-21T06:02:41;97751.47;;;9.94;38.14
42727;BME280;28372;56.832;60.658;2023-03-21T06:05:27;97753.53;;;10.04;39.26
42727;BME280;28372;56.832;60.658;2023-03-21T06:07:55;97752.03;;;10.10;39.48
42727;BME280;28372;56.832;60.658;2023-03-21T06:10:23;97750.97;;;10.19;38.71
42727;BME280;28372;56.832;60.658;2023-03-21T06:12:51;97740.63;;;10.24;40.36
42727;BME280;28372;56.832;60.658;2023-03-21T06:15:28;97743.00;;;10.33;37.59
42727;BME280;28372;56.832;60.658;2023-03-21T06:18:12;97736.19;;;10.43;40.01
42727;BME280;28372;56.832;60.658;2023-03-21T06:20:49;97732.81;;;10.53;37.75
42727;BME280;28372;56.832;60.658;2023-03-21T06:23:16;97732.91;;;10.64;35.83
42727;BME280;28372;56.832;60.658;2023-03-21T06:25:46;97734.53;;;10.72;37.10
42727;BME280;28372;56.832;60.658;2023-03-21T06:28:14;97735.75;;;10.82;36.12
42727;BME280;28372;56.832;60.658;2023-03-21T06:30:42;97740.47;;;10.92;39.33
42727;BME280;28372;56.832;60.658;2023-03-21T06:33:15;97732.06;;;11.01;39.44
42727;BME280;28372;56.832;60.658;2023-03-21T06:35:43;97726.69;;;11.12;37.69
42727;BME280;28372;56.832;60.658;2023-03-21T06:38:10;97727.97;;;11.25;36.36
42727;BME280;28372;56.832;60.658;2023-03-21T06:40:38;97728.03;;;11.36;35.30
42727;BME280;28372;56.832;60.658;2023-03-21T06:43:06;97721.91;;;11.46;35.67
42727;BME280;28372;56.832;60.658;2023-03-21T06:45:33;97722.31;;;11.52;36.53
42727;BME280;28372;56.832;60.658;2023-03-21T06:48:01;97717.31;;;11.58;37.16
42727;BME280;28372;56.832;60.658;2023-03-21T06:50:39;97714.25;;;11.66;37.39
42727;BME280;28372;56.832;60.658;2023-03-21T06:53:07;97718.91;;;11.70;37.35
42727;BME280;28372;56.832;60.658;2023-03-21T06:55:54;97707.72;;;11.78;36.32
42727;BME280;28372;56.832;60.658;2023-03-21T06:58:22;97708.53;;;11.82;37.06
42727;BME280;28372;56.832;60.658;2023-03-21T07:00:49;97705.84;;;11.90;36.13
42727;BME280;28372;56.832;60.658;2023-03-21T07:03:17;97700.06;;;11.98;35.08
42727;BME280;28372;56.832;60.658;2023-03-21T07:05:45;97698.94;;;12.07;35.26
42727;BME280;28372;56.832;60.658;2023-03-21T07:08:15;97704.38;;;12.14;34.95
42727;BME280;28372;56.832;60.658;2023-03-21T07:10:44;97706.34;;;12.21;34.73
42727;BME280;28372;56.832;60.658;2023-03-21T07:13:16;97693.19;;;12.26;35.59
42727;BME280;28372;56.832;60.658;2023-03-21T07:15:51;97707.13;;;12.32;35.57
42727;BME280;28372;56.832;60.658;2023-03-21T07:18:19;97700.16;;;12.34;36.19
42727;BME280;28372;56.832;60.658;2023-03-21T07:20:47;97694.34;;;12.43;34.72
42727;BME280;28372;56.832;60.658;2023-03-21T07:23:19;97695.50;;;12.49;34.91
42727;BME280;28372;56.832;60.658;2023-03-21T07:25:47;97697.09;;;12.54;35.34
42727;BME280;28372;56.832;60.658;2023-03-21T07:28:16;97691.28;;;12.63;33.91
42727;BME280;28372;56.832;60.658;2023-03-21T07:30:43;97687.00;;;12.69;33.74
42727;BME280;28372;56.832;60.658;2023-03-21T07:33:13;97700.56;;;12.73;34.14
42727;BME280;28372;56.832;60.658;2023-03-21T07:35:40;97697.06;;;12.72;34.14
42727;BME280;28372;56.832;60.658;2023-03-21T07:38:07;97697.47;;;12.74;34.26
42727;BME280;28372;56.832;60.658;2023-03-21T07:40:35;97691.66;;;12.79;33.38
42727;BME280;28372;56.832;60.658;2023-03-21T07:43:02;97697.84;;;12.80;33.26
42727;BME280;28372;56.832;60.658;2023-03-21T07:45:32;97694.00;;;12.81;33.58
42727;BME280;28372;56.832;60.658;2023-03-21T07:48:00;97685.84;;;12.81;33.50
42727;BME280;28372;56.832;60.658;2023-03-21T07:50:32;97693.97;;;12.77;33.38
42727;BME280;28372;56.832;60.658;2023-03-21T07:52:59;97685.44;;;12.72;34.09
42727;BME280;28372;56.832;60.658;2023-03-21T07:55:27;97683.13;;;12.66;33.48
42727;BME280;28372;56.832;60.658;2023-03-21T07:57:54;97687.00;;;12.65;33.34
42727;BME280;28372;56.832;60.658;2023-03-21T08:00:21;97686.63;;;12.60;33.45
42727;BME280;28372;56.832;60.658;2023-03-21T08:02:50;97685.06;;;12.59;33.19
42727;BME280;28372;56.832;60.658;2023-03-21T08:05:25;97676.53;;;12.49;33.04
42727;BME280;28372;56.832;60.658;2023-03-21T08:07:52;97683.09;;;12.41;33.39
42727;BME280;28372;56.832;60.658;2023-03-21T08:10:20;97682.31;;;12.37;33.22
42727;BME280;28372;56.832;60.658;2023-03-21T08:12:47;97685.81;;;12.30;33.52
42727;BME280;28372;56.832;60.658;2023-03-21T08:15:14;97685.81;;;12.27;33.39
42727;BME280;28372;56.832;60.658;2023-03-21T08:17:42;97674.59;;;12.25;33.20
42727;BME280;28372;56.832;60.658;2023-03-21T08:20:12;97674.97;;;12.23;33.25
42727;BME280;28372;56.832;60.658;2023-03-21T08:22:39;97678.06;;;12.18;33.07
42727;BME280;28372;56.832;60.658;2023-03-21T08:25:07;97673.00;;;12.13;33.45
42727;BME280;28372;56.832;60.658;2023-03-21T08:27:36;97674.16;;;12.08;33.59
42727;BME280;28372;56.832;60.658;2023-03-21T08:30:03;97675.31;;;12.04;33.47
42727;BME280;28372;56.832;60.658;2023-03-21T08:32:30;97669.91;;;12.11;32.64
42727;BME280;28372;56.832;60.658;2023-03-21T08:34:59;97668.72;;;12.01;33.85
42727;BME280;28372;56.832;60.658;2023-03-21T08:37:28;97664.84;;;11.98;33.13
42727;BME280;28372;56.832;60.658;2023-03-21T08:39:55;97666.78;;;11.98;34.04
42727;BME280;28372;56.832;60.658;2023-03-21T08:42:23;97661.34;;;11.94;34.22
42727;BME280;28372;56.832;60.658;2023-03-21T08:44:50;97654.34;;;11.93;33.93
42727;BME280;28372;56.832;60.658;2023-03-21T08:47:17;97660.53;;;11.90;34.57
42727;BME280;28372;56.832;60.658;2023-03-21T08:49:45;97657.06;;;11.90;34.32
42727;BME280;28372;56.832;60.658;2023-03-21T08:52:12;97652.81;;;11.92;33.22
42727;BME280;28372;56.832;60.658;2023-03-21T08:54:39;97651.69;;;11.97;33.05
42727;BME280;28372;56.832;60.658;2023-03-21T08:57:07;97652.06;;;11.99;33.76
42727;BME280;28372;56.832;60.658;2023-03-21T08:59:36;97643.53;;;11.97;34.51
42727;BME280;28372;56.832;60.658;2023-03-21T09:02:04;97648.59;;;12.02;34.70
42727;BME280;28372;56.832;60.658;2023-03-21T09:04:32;97649.00;;;12.08;34.12
42727;BME280;28372;56.832;60.658;2023-03-21T09:06:59;97649.38;;;12.13;34.60
42727;BME280;28372;56.832;60.658;2023-03-21T09:09:31;97644.34;;;12.19;34.04
42727;BME280;28372;56.832;60.658;2023-03-21T09:11:58;97644.75;;;12.21;33.76
42727;BME280;28372;56.832;60.658;2023-03-21T09:14:26;97643.97;;;12.31;33.93
42727;BME280;28372;56.832;60.658;2023-03-21T09:16:54;97642.41;;;12.41;33.51
42727;BME280;28372;56.832;60.658;2023-03-21T09:19:22;97639.31;;;12.46;33.48
42727;BME280;28372;56.832;60.658;2023-03-21T09:21:50;97639.72;;;12.52;33.35
42727;BME280;28372;56.832;60.658;2023-03-21T09:24:19;97643.59;;;12.62;33.45
42727;BME280;28372;56.832;60.658;2023-03-21T09:26:47;97643.19;;;12.71;33.35
42727;BME280;28372;56.832;60.658;2023-03-21T09:29:17;97643.97;;;12.75;32.88
42727;BME280;28372;56.832;60.658;2023-03-21T09:31:47;97644.72;;;12.79;33.04
42727;BME280;28372;56.832;60.658;2023-03-21T09:34:14;97642.81;;;12.87;32.90
42727;BME280;28372;56.832;60.658;2023-03-21T09:36:42;97639.31;;;12.93;33.07
42727;BME280;28372;56.832;60.658;2023-03-21T09:39:10;97636.19;;;12.98;33.03
42727;BME280;28372;56.832;60.658;2023-03-21T09:49:48;97634.19;;;13.17;32.07
42727;BME280;28372;56.832;60.658;2023-03-21T09:52:30;97639.63;;;13.20;32.44
42727;BME280;28372;56.832;60.658;2023-03-21T09:55:00;97631.84;;;13.26;32.42
42727;BME280;28372;56.832;60.658;2023-03-21T09:57:33;97635.31;;;13.30;32.25
42727;BME280;28372;56.832;60.658;2023-03-21T10:00:05;97634.53;;;13.33;32.08
42727;BME280;28372;56.832;60.658;2023-03-21T10:02:43;97638.03;;;13.38;32.16
42727;BME280;28372;56.832;60.658;2023-03-21T10:05:17;97623.28;;;13.42;31.99
42727;BME280;28372;56.832;60.658;2023-03-21T10:07:49;97627.16;;;13.45;31.88
42727;BME280;28372;56.832;60.658;2023-03-21T10:10:21;97622.47;;;13.49;31.82
42727;BME280;28372;56.832;60.658;2023-03-21T10:12:50;97620.91;;;13.51;31.60
42727;BME280;28372;56.832;60.658;2023-03-21T10:15:20;97614.28;;;13.56;31.43
42727;BME280;28372;56.832;60.658;2023-03-21T10:20:48;97607.69;;;13.61;31.22
42727;BME280;28372;56.832;60.658;2023-03-21T10:23:18;97607.66;;;13.64;31.18
42727;BME280;28372;56.832;60.658;2023-03-21T10:25:51;97608.81;;;13.67;31.27
42727;BME280;28372;56.832;60.658;2023-03-21T10:28:20;97601.00;;;13.69;31.14
42727;BME280;28372;56.832;60.658;2023-03-21T10:30:55;97609.16;;;13.69;31.10
42727;BME280;28372;56.832;60.658;2023-03-21T10:33:23;97615.38;;;13.73;31.15
42727;BME280;28372;56.832;60.658;2023-03-21T10:35:54;97609.56;;;13.75;31.14
42727;BME280;28372;56.832;60.658;2023-03-21T10:38:23;97605.25;;;13.77;30.96
42727;BME280;28372;56.832;60.658;2023-03-21T10:40:51;97597.09;;;13.77;31.07
42727;BME280;28372;56.832;60.658;2023-03-21T10:45:52;97601.75;;;13.80;30.83
42727;BME280;28372;56.832;60.658;2023-03-21T10:48:21;97601.34;;;13.82;30.73
42727;BME280;28372;56.832;60.658;2023-03-21T10:50:50;97597.09;;;13.81;30.90
42727;BME280;28372;56.832;60.658;2023-03-21T10:53:22;97595.91;;;13.82;31.01
42727;BME280;28372;56.832;60.658;2023-03-21T10:55:54;97601.34;;;13.82;30.58
42727;BME280;28372;56.832;60.658;2023-03-21T10:58:26;97599.81;;;13.81;30.57
42727;BME280;28372;56.832;60.658;2023-03-21T11:00:56;97595.13;;;13.81;30.75
42727;BME280;28372;56.832;60.658;2023-03-21T11:03:29;97586.63;;;13.79;30.45
42727;BME280;28372;56.832;60.658;2023-03-21T11:06:03;97583.91;;;13.79;30.53
42727;BME280;28372;56.832;60.658;2023-03-21T11:08:36;97593.25;;;13.75;30.77
42727;BME280;28372;56.832;60.658;2023-03-21T11:11:08;97580.50;;;13.61;30.64
42727;BME280;28372;56.832;60.658;2023-03-21T11:13:37;97590.22;;;13.58;30.50
42727;BME280;28372;56.832;60.658;2023-03-21T11:16:07;97588.66;;;13.57;30.39
42727;BME280;28372;56.832;60.658;2023-03-21T11:18:40;97582.50;;;13.49;29.99
42727;BME280;28372;56.832;60.658;2023-03-21T11:21:11;97590.28;;;13.44;29.81
42727;BME280;28372;56.832;60.658;2023-03-21T11:23:41;97592.63;;;13.45;30.17
42727;BME280;28372;56.832;60.658;2023-03-21T11:26:11;97587.19;;;13.45;30.32
42727;BME280;28372;56.832;60.658;2023-03-21T11:28:42;97583.69;;;13.45;29.88
42727;BME280;28372;56.832;60.658;2023-03-21T11:31:10;97592.97;;;13.47;30.11
42727;BME280;28372;56.832;60.658;2023-03-21T11:33:40;97581.00;;;13.38;29.32
42727;BME280;28372;56.832;60.658;2023-03-21T11:38:47;97574.38;;;13.42;29.65
42727;BME280;28372;56.832;60.658;2023-03-21T11:41:22;97586.41;;;13.45;30.37
42727;BME280;28372;56.832;60.658;2023-03-21T11:43:51;97582.56;;;13.39;29.78
42727;BME280;28372;56.832;60.658;2023-03-21T11:46:25;97599.28;;;13.15;29.81
42727;BME280;28372;56.832;60.658;2023-03-21T11:48:54;97583.03;;;13.05;30.08
42727;BME280;28372;56.832;60.658;2023-03-21T11:54:00;97586.13;;;13.10;30.48
42727;BME280;28372;56.832;60.658;2023-03-21T11:56:55;97582.66;;;12.95;29.43
42727;BME280;28372;56.832;60.658;2023-03-21T12:07:08;97593.56;;;12.81;29.52
42727;BME280;28372;56.832;60.658;2023-03-21T12:09:39;97590.09;;;12.73;29.45
42727;BME280;28372;56.832;60.658;2023-03-21T12:22:44;97576.16;;;12.49;29.98
42727;BME280;28372;56.832;60.658;2023-03-21T12:25:17;97583.53;;;12.42;29.88
42727;BME280;28372;56.832;60.658;2023-03-21T12:38:15;97579.25;;;12.37;30.34
42727;BME280;28372;56.832;60.658;2023-03-21T12:46:01;97576.16;;;12.42;30.08
42727;BME280;28372;56.832;60.658;2023-03-21T12:48:37;97581.59;;;12.42;29.97
42727;BME280;28372;56.832;60.658;2023-03-21T12:51:17;97585.47;;;12.41;30.04
42727;BME280;28372;56.832;60.658;2023-03-21T12:54:02;97575.78;;;12.37;30.12
42727;BME280;28372;56.832;60.658;2023-03-21T12:59:25;97590.53;;;12.18;30.46
42727;BME280;28372;56.832;60.658;2023-03-21T13:01:59;97579.28;;;12.15;30.52
42727;BME280;28372;56.832;60.658;2023-03-21T13:07:18;97587.78;;;12.10;30.20
42727;BME280;28372;56.832;60.658;2023-03-21T13:09:48;97585.06;;;12.03;30.45
42727;BME280;28372;56.832;60.658;2023-03-21T13:17:57;97583.47;;;11.88;30.46
42727;BME280;28372;56.832;60.658;2023-03-21T13:22:57;97583.84;;;11.79;30.67
42727;BME280;28372;56.832;60.658;2023-03-21T13:25:27;97581.88;;;11.65;31.28
42727;BME280;28372;56.832;60.658;2023-03-21T13:28:03;97580.72;;;11.62;30.98
42727;BME280;28372;56.832;60.658;2023-03-21T13:30:31;97576.84;;;11.60;31.36
42727;BME280;28372;56.832;60.658;2023-03-21T13:33:04;97576.06;;;11.59;31.02
42727;BME280;28372;56.832;60.658;2023-03-21T13:35:35;97578.41;;;11.61;30.68
42727;BME280;28372;56.832;60.658;2023-03-21T13:38:15;97572.19;;;11.57;30.54
42727;BME280;28372;56.832;60.658;2023-03-21T13:40:48;97567.53;;;11.50;31.11
42727;BME280;28372;56.832;60.658;2023-03-21T13:45:55;97563.25;;;11.45;30.64
42727;BME280;28372;56.832;60.658;2023-03-21T13:48:53;97571.41;;;11.42;31.37
42727;BME280;28372;56.832;60.658;2023-03-21T13:54:03;97565.94;;;11.38;30.78
42727;BME280;28372;56.832;60.658;2023-03-21T13:59:20;97562.06;;;11.28;31.37
42727;BME280;28372;56.832;60.658;2023-03-21T14:04:38;97555.84;;;11.21;31.04
42727;BME280;28372;56.832;60.658;2023-03-21T14:07:30;97553.16;;;11.21;30.71
42727;BME280;28372;56.832;60.658;2023-03-21T14:10:00;97553.16;;;11.21;30.45
42727;BME280;28372;56.832;60.658;2023-03-21T14:12:41;97551.97;;;11.18;30.92
42727;BME280;28372;56.832;60.658;2023-03-21T14:15:14;97556.59;;;11.18;30.82
42727;BME280;28372;56.832;60.658;2023-03-21T14:20:23;97561.97;;;11.10;30.63
42727;BME280;28372;56.832;60.658;2023-03-21T14:22:51;97553.06;;;11.06;31.74
42727;BME280;28372;56.832;60.658;2023-03-21T14:25:19;97551.13;;;11.03;30.82
42727;BME280;28372;56.832;60.658;2023-03-21T14:27:52;97551.88;;;11.04;31.07
42727;BME280;28372;56.832;60.658;2023-03-21T14:30:24;97549.94;;;11.01;31.08
42727;BME280;28372;56.832;60.658;2023-03-21T14:32:53;97545.31;;;10.97;31.86
42727;BME280;28372;56.832;60.658;2023-03-21T14:35:21;97546.84;;;10.95;31.99
42727;BME280;28372;56.832;60.658;2023-03-21T14:37:48;97542.22;;;10.95;31.07
42727;BME280;28372;56.832;60.658;2023-03-21T14:40:19;97544.13;;;10.91;31.08
42727;BME280;28372;56.832;60.658;2023-03-21T14:42:47;97545.66;;;10.89;31.10
42727;BME280;28372;56.832;60.658;2023-03-21T14:45:19;97543.72;;;10.86;30.82
42727;BME280;28372;56.832;60.658;2023-03-21T14:50:35;97545.63;;;10.82;30.93
42727;BME280;28372;56.832;60.658;2023-03-21T14:53:05;97546.34;;;10.78;30.91
42727;BME280;28372;56.832;60.658;2023-03-21T14:55:39;97554.47;;;10.75;31.40
42727;BME280;28372;56.832;60.658;2023-03-21T14:58:09;97552.16;;;10.73;31.06
42727;BME280;28372;56.832;60.658;2023-03-21T15:00:37;97552.91;;;10.70;31.00
42727;BME280;28372;56.832;60.658;2023-03-21T15:03:05;97550.19;;;10.70;31.25
42727;BME280;28372;56.832;60.658;2023-03-21T15:05:35;97557.13;;;10.68;31.20
42727;BME280;28372;56.832;60.658;2023-03-21T15:10:41;97550.50;;;10.61;33.13
42727;BME280;28372;56.832;60.658;2023-03-21T15:13:13;97552.03;;;10.59;32.39
42727;BME280;28372;56.832;60.658;2023-03-21T15:15:41;97545.91;;;10.66;30.99
42727;BME280;28372;56.832;60.658;2023-03-21T15:18:10;97549.03;;;10.68;31.62